Time;durP1;ratioP1;P1;durP2;ratioP2;P2;SDS_P1;SDS_P2;PMS_P1;PMS_P2;Temp;Humidity;BMP_temperature;BMP_pressure;BME280_temperature;BME280_humidity;BME280_pressure;Samples;Min_cycle;Max_cycle;Signal;HPM_P1;HPM_P2
2023/01/27 00:00:54;;;;;;;1.05;1.05;;;;;;;3.66;86.45;101689.66;5174398;28;20046;-80
2023/01/27 00:03:32;;;;;;;0.98;0.98;;;;;;;3.73;86.74;101694.09;5195580;28;20046;-81
2023/01/27 00:06:05;;;;;;;0.40;0.40;;;;;;;3.65;87.13;101687.91;5213246;28;20049;-82
2023/01/27 00:08:35;;;;;;;0.63;0.63;;;;;;;3.64;86.63;101693.94;5196063;28;20044;-80
2023/01/27 00:13:55;;;;;;;0.40;0.40;;;;;;;3.62;86.83;101693.03;5198871;28;20789;-82
2023/01/27 00:16:26;;;;;;;3.05;2.20;;;;;;;3.62;86.15;101695.63;5178432;28;20060;-82
2023/01/27 00:18:59;;;;;;;0.30;0.30;;;;;;;3.63;86.23;101697.38;5189817;28;20044;-79
2023/01/27 00:24:37;;;;;;;0.93;0.88;;;;;;;3.62;85.82;101698.22;5202477;28;19936;-82
2023/01/27 00:27:08;;;;;;;0.50;0.50;;;;;;;3.57;85.19;101707.66;5179864;28;20056;-81
2023/01/27 00:29:39;;;;;;;0.40;0.40;;;;;;;3.56;85.76;101696.41;5181392;28;20049;-81
2023/01/27 00:34:59;;;;;;;0.55;0.55;;;;;;;3.55;85.14;101704.16;5195056;28;20072;-82
2023/01/27 00:37:29;;;;;;;0.65;0.65;;;;;;;3.60;84.50;101702.50;5193697;28;20037;-81
2023/01/27 00:40:00;;;;;;;0.73;0.73;;;;;;;3.62;85.20;101700.81;5172744;28;20045;-82
2023/01/27 00:42:30;;;;;;;0.35;0.35;;;;;;;3.66;84.01;101707.84;5193782;28;20053;-81
2023/01/27 00:47:51;;;;;;;1.23;1.20;;;;;;;3.57;84.54;101708.53;5196377;28;20060;-82
2023/01/27 00:50:22;;;;;;;1.02;1.02;;;;;;;3.56;84.27;101709.38;5196724;28;20099;-81
2023/01/27 00:52:52;;;;;;;1.92;1.50;;;;;;;3.58;83.96;101714.63;5178029;28;20538;-80
2023/01/27 00:55:23;;;;;;;0.52;0.52;;;;;;;3.58;83.84;101712.00;5178314;28;20056;-83
2023/01/27 00:57:53;;;;;;;0.40;0.40;;;;;;;3.72;84.61;101707.94;5190329;28;20034;-81
2023/01/27 01:00:23;;;;;;;0.35;0.35;;;;;;;3.52;83.97;101698.91;5177719;28;20053;-81
2023/01/27 01:02:54;;;;;;;4.13;1.92;;;;;;;3.59;84.25;101708.56;5202137;28;20038;-81
2023/01/27 01:05:24;;;;;;;0.38;0.38;;;;;;;3.58;84.32;101707.69;5202750;28;20041;-81
2023/01/27 01:07:55;;;;;;;0.70;0.70;;;;;;;3.60;84.48;101713.78;5170067;28;20416;-80
2023/01/27 01:10:25;;;;;;;0.38;0.38;;;;;;;3.50;84.23;101721.38;5192961;28;20674;-81
2023/01/27 01:12:56;;;;;;;0.40;0.40;;;;;;;3.54;83.91;101720.56;5177375;28;20033;-80
2023/01/27 01:15:26;;;;;;;1.45;1.35;;;;;;;3.57;85.17;101712.84;5172406;28;20700;-82
2023/01/27 01:17:57;;;;;;;0.88;0.88;;;;;;;3.54;83.09;101717.97;5181261;28;20030;-81
2023/01/27 01:20:27;;;;;;;0.73;0.73;;;;;;;3.61;83.88;101714.66;5172724;28;20094;-80
2023/01/27 01:22:58;;;;;;;1.65;1.48;;;;;;;3.45;83.66;101727.34;5208161;28;20124;-81
2023/01/27 01:25:28;;;;;;;0.50;0.50;;;;;;;3.47;83.96;101728.25;5163404;28;20045;-80
2023/01/27 01:28:00;;;;;;;0.40;0.40;;;;;;;3.55;83.49;101725.81;5198743;28;20038;-80
2023/01/27 01:30:36;;;;;;;0.30;0.30;;;;;;;3.59;83.95;101730.19;5193783;28;20293;-81
2023/01/27 01:33:15;;;;;;;0.45;0.45;;;;;;;3.46;83.66;101731.69;5196246;28;20871;-82
2023/01/27 01:35:46;;;;;;;0.35;0.35;;;;;;;3.48;83.20;101731.72;5203018;28;20039;-81
2023/01/27 01:38:17;;;;;;;0.40;0.40;;;;;;;3.53;83.24;101739.59;5198493;28;20566;-81
2023/01/27 01:40:48;;;;;;;0.70;0.70;;;;;;;3.37;81.98;101736.72;5201074;28;20045;-80
2023/01/27 01:43:21;;;;;;;0.40;0.40;;;;;;;3.41;82.44;101741.13;5192558;28;20057;-81
2023/01/27 01:45:57;;;;;;;0.55;0.55;;;;;;;3.40;82.39;101741.97;5186486;28;20022;-80
2023/01/27 01:48:38;;;;;;;0.60;0.60;;;;;;;3.41;82.00;101743.72;5202243;28;20508;-82
2023/01/27 01:51:17;;;;;;;0.50;0.50;;;;;;;3.44;81.79;101740.31;5198540;28;20532;-81
2023/01/27 01:53:47;;;;;;;0.63;0.63;;;;;;;3.37;82.71;101741.91;5184110;28;20080;-82
2023/01/27 01:56:25;;;;;;;2.72;1.88;;;;;;;3.41;82.93;101748.91;5177863;28;20030;-82
2023/01/27 01:59:00;;;;;;;0.40;0.40;;;;;;;3.41;82.19;101753.19;5195140;28;20053;-80
2023/01/27 02:01:30;;;;;;;0.47;0.47;;;;;;;3.42;82.84;101745.47;5190013;28;20021;-82
2023/01/27 02:04:06;;;;;;;0.43;0.43;;;;;;;3.31;82.81;101739.19;5184466;28;20045;-80
2023/01/27 02:06:44;;;;;;;1.85;1.58;;;;;;;3.27;83.07;101737.38;5184885;28;20033;-81
2023/01/27 02:09:15;;;;;;;0.40;0.40;;;;;;;3.28;82.83;101739.13;5186709;28;20043;-81
2023/01/27 02:11:46;;;;;;;1.02;1.02;;;;;;;3.15;82.99;101740.59;5185213;28;20041;-82
2023/01/27 02:14:17;;;;;;;0.52;0.52;;;;;;;3.17;82.40;101735.47;5196668;28;20045;-81
2023/01/27 02:16:48;;;;;;;0.68;0.68;;;;;;;3.25;82.66;101746.88;5190155;28;20125;-81
2023/01/27 02:19:37;;;;;;;0.70;0.70;;;;;;;3.29;82.88;101754.75;5181639;28;20077;-82
2023/01/27 02:22:12;;;;;;;1.52;1.35;;;;;;;3.16;82.56;101752.72;5181866;28;20034;-81
2023/01/27 02:24:51;;;;;;;0.40;0.40;;;;;;;3.17;81.75;101744.09;5190821;28;20057;-81
2023/01/27 02:27:22;;;;;;;0.45;0.45;;;;;;;3.18;82.17;101740.66;5196723;28;20030;-80
2023/01/27 02:29:52;;;;;;;1.10;0.98;;;;;;;3.19;82.04;101747.59;5187496;28;20700;-80
2023/01/27 02:32:25;;;;;;;0.70;0.70;;;;;;;3.26;82.01;101743.44;5185984;28;20773;-80
2023/01/27 02:34:56;;;;;;;0.68;0.68;;;;;;;3.27;82.06;101746.03;5215233;28;20065;-82
2023/01/27 02:37:28;;;;;;;1.30;1.25;;;;;;;3.29;81.96;101748.66;5206798;28;20241;-81
2023/01/27 02:40:01;;;;;;;0.60;0.60;;;;;;;3.34;81.77;101752.22;5215830;28;20041;-82
2023/01/27 02:42:31;;;;;;;0.55;0.55;;;;;;;3.29;82.06;101753.84;5206663;28;20018;-83
2023/01/27 02:45:03;;;;;;;0.85;0.85;;;;;;;3.30;82.67;101755.59;5221582;28;20040;-83
2023/01/27 02:47:34;;;;;;;5.00;2.22;;;;;;;3.29;82.33;101754.75;5215003;28;20425;-82
2023/01/27 02:50:05;;;;;;;1.60;1.50;;;;;;;3.24;82.43;101760.66;5200221;28;20068;-81
2023/01/27 02:52:35;;;;;;;1.10;1.10;;;;;;;3.24;83.27;101755.47;5195243;28;20783;-80
2023/01/27 02:55:06;;;;;;;1.20;1.20;;;;;;;3.33;82.82;101758.25;5197753;28;20042;-82
2023/01/27 02:57:37;;;;;;;0.60;0.60;;;;;;;3.21;82.80;101755.41;5178727;28;20091;-81
2023/01/27 03:00:12;;;;;;;0.65;0.65;;;;;;;3.16;82.32;101763.09;5187975;28;20101;-80
2023/01/27 03:02:42;;;;;;;0.50;0.50;;;;;;;3.27;82.49;101756.41;5185129;28;20030;-81
2023/01/27 03:05:14;;;;;;;0.50;0.50;;;;;;;3.18;83.27;101761.41;5205180;28;20527;-80
2023/01/27 03:07:44;;;;;;;1.30;1.20;;;;;;;3.25;82.78;101767.63;5185610;28;20386;-82
2023/01/27 03:10:15;;;;;;;0.77;0.77;;;;;;;3.11;83.69;101770.78;5193788;28;20048;-81
2023/01/27 03:12:45;;;;;;;1.88;1.77;;;;;;;3.13;83.81;101773.44;5196966;28;20033;-80
2023/01/27 03:18:11;;;;;;;0.70;0.70;;;;;;;3.09;81.44;101780.28;5200242;28;20064;-82
2023/01/27 03:20:44;;;;;;;0.90;0.90;;;;;;;2.92;81.75;101785.09;5178938;28;20045;-83
2023/01/27 03:23:17;;;;;;;0.52;0.52;;;;;;;3.02;81.89;101795.66;5196991;28;20030;-82
2023/01/27 03:25:47;;;;;;;9.80;1.63;;;;;;;3.09;81.42;101789.75;5190950;28;20025;-83
2023/01/27 03:28:18;;;;;;;0.77;0.77;;;;;;;3.07;81.08;101788.84;5189718;28;20104;-81
2023/01/27 03:30:48;;;;;;;1.45;1.35;;;;;;;3.12;81.49;101793.28;5196446;28;20138;-82
2023/01/27 03:33:19;;;;;;;0.82;0.82;;;;;;;2.92;81.40;101799.78;5183652;28;20619;-80
2023/01/27 03:47:06;;;;;;;0.30;0.30;;;;;;;2.86;78.71;101803.09;5205161;28;20103;-81
2023/01/27 03:49:36;;;;;;;0.40;0.40;;;;;;;2.98;78.62;101805.09;5173885;28;20037;-80
2023/01/27 03:52:07;;;;;;;0.32;0.32;;;;;;;2.76;79.46;101796.84;5179752;28;20061;-81
2023/01/27 03:54:37;;;;;;;0.60;0.60;;;;;;;2.84;79.89;101817.75;5177018;28;20124;-81
2023/01/27 03:57:07;;;;;;;0.40;0.40;;;;;;;2.96;80.08;101815.44;5177617;28;20692;-81
2023/01/27 03:59:38;;;;;;;0.40;0.40;;;;;;;2.86;79.82;101813.47;5173353;28;20065;-80
2023/01/27 04:07:47;;;;;;;0.88;0.88;;;;;;;2.75;80.39;101802.88;5192205;28;20052;-82
2023/01/27 04:10:17;;;;;;;0.40;0.40;;;;;;;2.93;79.92;101807.56;5177593;28;20038;-82
2023/01/27 04:12:47;;;;;;;0.77;0.77;;;;;;;2.97;80.14;101808.50;5198483;28;20031;-81
2023/01/27 04:15:18;;;;;;;0.30;0.30;;;;;;;2.78;79.70;101802.91;5209790;28;20045;-80
2023/01/27 04:17:48;;;;;;;0.50;0.50;;;;;;;2.75;81.27;101807.16;5197350;28;20061;-80
2023/01/27 04:20:19;;;;;;;0.32;0.32;;;;;;;2.82;80.98;101815.13;5197673;28;20029;-82
2023/01/27 04:22:49;;;;;;;0.40;0.40;;;;;;;2.93;80.34;101809.31;5197364;28;20029;-82
2023/01/27 04:25:20;;;;;;;0.40;0.40;;;;;;;3.01;80.03;101805.16;5181731;28;20063;-81
2023/01/27 04:27:50;;;;;;;0.30;0.30;;;;;;;3.09;79.95;101802.72;5174547;28;20061;-81
2023/01/27 04:30:21;;;;;;;0.55;0.55;;;;;;;2.74;80.63;101801.13;5195716;28;20111;-80
2023/01/27 04:32:52;;;;;;;0.40;0.40;;;;;;;2.83;80.97;101805.63;5174785;28;20018;-81
2023/01/27 04:35:22;;;;;;;0.60;0.60;;;;;;;2.72;81.59;101810.56;5191862;28;20064;-80
2023/01/27 04:37:53;;;;;;;0.32;0.32;;;;;;;2.86;81.46;101809.97;5174748;28;20113;-80
2023/01/27 04:40:23;;;;;;;0.40;0.40;;;;;;;2.75;81.10;101814.94;5169187;28;20046;-80
2023/01/27 04:42:53;;;;;;;0.57;0.57;;;;;;;2.77;81.54;101810.66;5194797;28;20125;-79
2023/01/27 04:45:24;;;;;;;0.68;0.68;;;;;;;2.78;82.32;101820.19;5191535;28;20045;-81
2023/01/27 04:47:54;;;;;;;2.40;1.15;;;;;;;2.77;81.91;101813.25;5201341;28;20025;-79
2023/01/27 04:50:25;;;;;;;0.50;0.50;;;;;;;2.85;82.05;101818.63;5180104;28;20411;-80
2023/01/27 04:52:55;;;;;;;0.32;0.32;;;;;;;2.81;82.24;101828.91;5174411;28;20219;-80
2023/01/27 04:55:26;;;;;;;0.63;0.63;;;;;;;2.84;82.84;101817.75;5180407;28;20721;-80
2023/01/27 04:57:57;;;;;;;0.88;0.88;;;;;;;2.97;82.16;101818.88;5173551;28;20041;-81
2023/01/27 05:00:27;;;;;;;1.13;1.13;;;;;;;2.87;82.48;101819.53;5174294;28;20046;-81
2023/01/27 05:02:58;;;;;;;0.52;0.52;;;;;;;2.95;82.37;101817.97;5197207;28;20052;-80
2023/01/27 05:05:28;;;;;;;1.10;1.05;;;;;;;2.78;83.45;101820.19;5178212;28;20046;-80
2023/01/27 05:08:08;;;;;;;0.80;0.80;;;;;;;2.92;82.80;101816.19;5188202;28;20048;-79
2023/01/27 05:10:41;;;;;;;0.75;0.75;;;;;;;2.82;83.48;101820.31;5178685;28;20974;-80
2023/01/27 05:13:12;;;;;;;0.95;0.95;;;;;;;3.00;82.81;101824.16;5192538;28;20122;-80
2023/01/27 05:15:42;;;;;;;2.78;1.80;;;;;;;2.78;83.02;101825.38;5180563;28;20045;-80
2023/01/27 05:18:13;;;;;;;0.57;0.57;;;;;;;2.98;82.96;101820.66;5191312;28;20032;-79
2023/01/27 05:20:44;;;;;;;0.57;0.57;;;;;;;2.92;82.93;101815.34;5198700;28;20021;-82
2023/01/27 05:26:14;;;;;;;0.43;0.43;;;;;;;2.63;84.55;101829.38;5190326;28;20854;-79
2023/01/27 05:28:46;;;;;;;0.60;0.60;;;;;;;2.58;84.13;101830.97;5186378;28;20048;-80
2023/01/27 05:31:28;;;;;;;3.03;1.50;;;;;;;2.87;83.83;101822.09;5192876;28;20026;-81
2023/01/27 05:33:59;;;;;;;0.52;0.52;;;;;;;2.80;82.81;101821.97;5193432;28;20046;-81
2023/01/27 05:36:30;;;;;;;0.75;0.75;;;;;;;2.84;83.22;101822.91;5191575;28;20091;-79
2023/01/27 05:39:01;;;;;;;0.60;0.60;;;;;;;2.97;83.31;101829.25;5177316;28;20049;-80
2023/01/27 05:41:31;;;;;;;0.50;0.50;;;;;;;2.87;83.35;101832.47;5175759;28;20033;-82
2023/01/27 05:44:02;;;;;;;1.20;1.20;;;;;;;2.83;83.33;101832.44;5185167;28;20066;-79
2023/01/27 05:46:33;;;;;;;1.55;0.98;;;;;;;2.95;83.25;101841.31;5172565;28;20133;-80
2023/01/27 05:49:04;;;;;;;2.72;2.55;;;;;;;3.01;83.37;101833.69;5194744;28;20045;-80
2023/01/27 05:51:38;;;;;;;0.98;0.98;;;;;;;2.89;83.49;101841.19;5176010;28;20025;-80
2023/01/27 05:54:09;;;;;;;1.25;1.25;;;;;;;2.78;84.47;101844.38;5190323;28;20053;-80
2023/01/27 05:56:39;;;;;;;4.50;3.80;;;;;;;2.90;83.58;101837.75;5176586;28;20041;-79
2023/01/27 05:59:10;;;;;;;1.70;1.60;;;;;;;2.89;83.78;101841.19;5186828;28;20121;-81
2023/01/27 06:01:41;;;;;;;1.42;1.33;;;;;;;2.90;84.27;101836.00;5196436;28;20041;-80
2023/01/27 06:04:11;;;;;;;0.40;0.40;;;;;;;2.72;85.76;101838.22;5201817;28;20037;-80
2023/01/27 06:06:42;;;;;;;0.90;0.90;;;;;;;2.85;85.31;101839.38;5198984;28;20149;-82
2023/01/27 06:09:12;;;;;;;1.15;1.15;;;;;;;2.78;85.74;101841.78;5194568;28;20726;-81
2023/01/27 06:11:42;;;;;;;0.55;0.55;;;;;;;2.88;84.69;101852.38;5181649;28;20065;-80
2023/01/27 06:14:14;;;;;;;0.65;0.65;;;;;;;2.94;84.64;101844.72;5184464;28;20038;-80
2023/01/27 06:16:46;;;;;;;0.60;0.60;;;;;;;2.84;85.82;101854.03;5179225;28;20041;-80
2023/01/27 06:19:16;;;;;;;2.92;2.47;;;;;;;2.87;85.57;101848.94;5199872;28;20042;-81
2023/01/27 06:21:47;;;;;;;0.95;0.95;;;;;;;2.92;85.50;101846.44;5197076;28;20044;-81
2023/01/27 06:24:17;;;;;;;1.52;1.52;;;;;;;3.06;84.76;101849.34;5203156;28;20270;-80
2023/01/27 06:26:47;;;;;;;0.93;0.93;;;;;;;2.97;86.09;101850.91;5183588;28;21005;-80
2023/01/27 06:29:18;;;;;;;1.20;1.20;;;;;;;2.95;86.01;101849.97;5180526;28;20060;-81
2023/01/27 06:31:49;;;;;;;1.30;1.20;;;;;;;2.92;85.70;101855.09;5199003;28;20044;-81
2023/01/27 06:34:19;;;;;;;0.55;0.55;;;;;;;2.94;85.52;101856.00;5190703;28;20052;-80
2023/01/27 06:36:52;;;;;;;0.80;0.80;;;;;;;2.86;86.22;101856.66;5184178;28;20049;-80
2023/01/27 06:39:23;;;;;;;0.57;0.57;;;;;;;2.79;86.88;101856.50;5198344;28;20076;-79
2023/01/27 06:41:53;;;;;;;0.50;0.50;;;;;;;2.87;86.71;101853.22;5200222;28;20505;-80
2023/01/27 06:44:23;;;;;;;4.90;1.50;;;;;;;2.96;85.56;101853.44;5184760;28;20121;-80
2023/01/27 06:46:54;;;;;;;0.73;0.73;;;;;;;2.92;86.08;101874.97;5195612;28;20088;-80
2023/01/27 06:49:24;;;;;;;3.22;2.30;;;;;;;2.88;86.36;101870.53;5196619;28;20033;-81
2023/01/27 06:51:55;;;;;;;0.30;0.30;;;;;;;2.95;85.99;101877.59;5208577;28;20294;-80
2023/01/27 06:54:25;;;;;;;0.68;0.68;;;;;;;2.91;86.46;101870.59;5209096;28;20108;-81
2023/01/27 06:56:56;;;;;;;0.52;0.52;;;;;;;2.97;85.73;101871.63;5211430;28;20042;-80
2023/01/27 06:59:26;;;;;;;2.40;1.80;;;;;;;3.01;86.13;101877.75;5193423;28;20049;-81
2023/01/27 07:01:57;;;;;;;0.82;0.82;;;;;;;3.01;85.36;101870.00;5197119;28;20083;-81
2023/01/27 07:04:28;;;;;;;0.50;0.50;;;;;;;3.07;85.88;101871.81;5202801;28;20463;-80
2023/01/27 07:06:59;;;;;;;0.95;0.95;;;;;;;3.04;85.97;101872.63;5197570;28;20025;-80
2023/01/27 07:09:29;;;;;;;1.10;1.10;;;;;;;3.05;85.44;101884.75;5196264;28;20458;-80
2023/01/27 07:12:00;;;;;;;0.93;0.93;;;;;;;2.97;86.25;101879.41;5187791;28;20967;-80
2023/01/27 07:14:30;;;;;;;0.65;0.65;;;;;;;3.08;85.57;101890.03;5199308;28;20033;-80
2023/01/27 07:17:00;;;;;;;0.88;0.88;;;;;;;3.07;85.31;101893.47;5193238;28;20029;-79
2023/01/27 07:19:31;;;;;;;0.82;0.82;;;;;;;3.03;86.71;101891.63;5192627;28;20052;-80
2023/01/27 07:22:01;;;;;;;1.88;1.77;;;;;;;3.05;85.98;101889.09;5182467;28;20030;-81
2023/01/27 07:24:32;;;;;;;0.50;0.50;;;;;;;3.07;86.43;101896.06;5190981;28;20033;-80
2023/01/27 07:27:02;;;;;;;0.50;0.50;;;;;;;3.00;86.59;101896.75;5181856;28;20119;-80
2023/01/27 07:29:33;;;;;;;0.80;0.80;;;;;;;2.92;87.37;101900.88;5179355;28;20053;-80
2023/01/27 07:32:03;;;;;;;1.02;1.02;;;;;;;2.91;87.06;101893.94;5196941;28;20060;-80
2023/01/27 07:34:34;;;;;;;0.60;0.60;;;;;;;2.94;86.65;101902.66;5182976;28;20056;-81
2023/01/27 07:37:04;;;;;;;0.50;0.50;;;;;;;2.83;87.38;101897.22;5184891;28;20021;-79
2023/01/27 07:39:36;;;;;;;0.75;0.75;;;;;;;3.02;86.16;101895.06;5180503;28;20030;-81
2023/01/27 07:42:08;;;;;;;0.35;0.35;;;;;;;2.99;86.00;101900.19;5185569;28;20586;-80
2023/01/27 07:44:38;;;;;;;0.85;0.85;;;;;;;3.05;86.42;101902.91;5207800;28;20493;-81
2023/01/27 07:47:09;;;;;;;0.63;0.63;;;;;;;3.03;85.93;101904.59;5194765;28;20045;-81
2023/01/27 07:49:39;;;;;;;0.38;0.38;;;;;;;3.07;86.05;101903.81;5186340;28;20068;-80
2023/01/27 07:52:09;;;;;;;0.68;0.68;;;;;;;3.06;86.12;101902.06;5197300;28;20038;-80
2023/01/27 07:54:40;;;;;;;1.35;1.35;;;;;;;3.12;86.15;101906.53;5204924;28;20182;-81
2023/01/27 07:57:10;;;;;;;0.50;0.50;;;;;;;3.10;86.08;101909.06;5187593;28;20028;-82
2023/01/27 07:59:41;;;;;;;1.50;1.40;;;;;;;3.08;86.04;101905.59;5203132;28;20055;-82
2023/01/27 08:02:11;;;;;;;2.80;1.02;;;;;;;3.07;85.86;101911.59;5197912;28;20119;-81
2023/01/27 08:04:42;;;;;;;1.35;1.27;;;;;;;3.08;86.27;101909.88;5185434;28;20068;-81
2023/01/27 08:07:12;;;;;;;0.88;0.88;;;;;;;3.05;86.25;101915.88;5196593;28;20026;-81
2023/01/27 08:09:43;;;;;;;0.50;0.50;;;;;;;3.13;85.83;101909.16;5182355;28;20079;-81
2023/01/27 08:12:13;;;;;;;0.50;0.50;;;;;;;3.19;86.32;101918.78;5177483;28;20038;-80
2023/01/27 08:14:44;;;;;;;0.43;0.43;;;;;;;3.17;86.28;101922.19;5192772;28;20071;-80
2023/01/27 08:17:14;;;;;;;1.30;1.30;;;;;;;3.21;86.28;101913.63;5182019;28;20029;-81
2023/01/27 08:19:45;;;;;;;0.30;0.30;;;;;;;3.23;86.10;101911.94;5210118;28;20045;-82
2023/01/27 08:22:19;;;;;;;0.40;0.40;;;;;;;3.19;86.53;101915.31;5192660;28;20092;-80
2023/01/27 08:24:50;;;;;;;0.98;0.98;;;;;;;3.24;85.82;101914.56;5170800;28;20048;-81
2023/01/27 08:27:22;;;;;;;1.08;1.05;;;;;;;3.24;86.16;101921.50;5180845;28;20053;-81
2023/01/27 08:29:52;;;;;;;0.82;0.82;;;;;;;3.15;86.40;101910.06;5182369;28;20034;-84
2023/01/27 08:32:23;;;;;;;0.73;0.73;;;;;;;3.28;86.47;101908.63;5192943;28;20018;-81
2023/01/27 08:34:54;;;;;;;0.77;0.77;;;;;;;3.25;86.96;101905.94;5187575;28;20045;-81
2023/01/27 08:37:24;;;;;;;0.88;0.88;;;;;;;3.29;86.12;101904.31;5198280;28;20017;-81
2023/01/27 08:39:55;;;;;;;0.85;0.85;;;;;;;3.20;86.47;101907.56;5180624;28;20056;-81
2023/01/27 08:42:25;;;;;;;0.82;0.82;;;;;;;3.25;86.24;101912.88;5184594;28;20025;-82
2023/01/27 08:44:56;;;;;;;0.40;0.40;;;;;;;3.10;87.42;101908.19;5201157;28;20519;-81
2023/01/27 08:47:27;;;;;;;0.50;0.50;;;;;;;3.14;86.96;101910.91;5198695;28;20120;-81
2023/01/27 08:49:58;;;;;;;0.50;0.50;;;;;;;3.28;87.05;101912.91;5207367;28;20041;-81
2023/01/27 08:52:29;;;;;;;1.23;1.23;;;;;;;3.33;86.50;101913.91;5212988;28;20022;-82
2023/01/27 08:55:00;;;;;;;2.47;2.28;;;;;;;3.31;86.18;101918.19;5206076;28;20041;-82
2023/01/27 08:57:31;;;;;;;0.50;0.50;;;;;;;3.39;86.10;101913.19;5179980;28;20029;-82
2023/01/27 09:00:03;;;;;;;0.57;0.57;;;;;;;3.35;86.24;101914.81;5181595;28;20056;-81
2023/01/27 09:02:34;;;;;;;0.60;0.60;;;;;;;3.37;86.34;101915.72;5176515;28;20407;-82
2023/01/27 09:05:05;;;;;;;0.77;0.77;;;;;;;3.30;86.35;101922.50;5194060;28;20034;-78
2023/01/27 09:07:36;;;;;;;0.57;0.57;;;;;;;3.43;85.82;101918.44;5193516;28;20096;-78
2023/01/27 09:10:07;;;;;;;0.85;0.85;;;;;;;3.35;85.76;101921.72;5196692;28;20038;-78
2023/01/27 09:12:39;;;;;;;0.50;0.50;;;;;;;3.36;86.05;101924.34;5188032;28;20033;-77
2023/01/27 09:15:11;;;;;;;0.50;0.50;;;;;;;3.41;85.53;101927.94;5185535;28;20113;-79
2023/01/27 09:17:42;;;;;;;0.60;0.60;;;;;;;3.41;85.62;101924.44;5194565;28;20401;-78
2023/01/27 09:20:13;;;;;;;0.93;0.93;;;;;;;3.42;85.89;101937.47;5181831;28;20040;-79
2023/01/27 09:22:44;;;;;;;0.65;0.65;;;;;;;3.45;85.86;101937.53;5205398;28;20049;-78
2023/01/27 09:25:16;;;;;;;0.93;0.93;;;;;;;3.40;86.13;101939.16;5177971;28;20416;-78
2023/01/27 09:27:47;;;;;;;0.40;0.40;;;;;;;3.44;86.07;101951.34;5189894;28;20646;-78
2023/01/27 09:30:17;;;;;;;0.43;0.43;;;;;;;3.38;86.23;101947.75;5181272;28;20094;-78
2023/01/27 09:32:49;;;;;;;0.82;0.82;;;;;;;3.40;86.78;101949.53;5199873;28;20116;-78
2023/01/27 09:35:19;;;;;;;0.65;0.65;;;;;;;3.45;86.30;101949.63;5177106;28;20033;-78
2023/01/27 09:37:57;;;;;;;0.77;0.77;;;;;;;3.44;85.89;101950.47;5192674;28;20122;-79
2023/01/27 09:41:06;;;;;;;0.85;0.85;;;;;;;3.54;85.80;101961.91;5178406;28;20065;-78
2023/01/27 09:44:05;;;;;;;0.45;0.45;;;;;;;3.55;85.52;101958.50;5172237;28;20401;-78
2023/01/27 09:46:44;;;;;;;0.40;0.40;;;;;;;3.58;84.96;101955.97;5173507;28;20091;-78
2023/01/27 09:49:15;;;;;;;1.23;1.13;;;;;;;3.60;85.67;101959.44;5184200;28;20049;-78
2023/01/27 09:52:17;;;;;;;0.40;0.40;;;;;;;3.59;85.56;101965.50;5197466;28;20025;-79
2023/01/27 09:54:56;;;;;;;0.30;0.30;;;;;;;3.58;85.32;101962.03;5194470;28;20049;-79
2023/01/27 09:57:32;;;;;;;0.45;0.45;;;;;;;3.62;85.42;101966.44;5190364;28;20554;-79
2023/01/27 10:00:12;;;;;;;0.30;0.30;;;;;;;3.61;85.52;101966.41;5194347;28;20111;-79
2023/01/27 10:03:03;;;;;;;0.40;0.40;;;;;;;3.62;85.45;101970.75;5189475;28;20029;-79
2023/01/27 10:06:07;;;;;;;1.20;1.20;;;;;;;3.65;85.20;101967.34;5173516;28;20037;-78
2023/01/27 10:08:56;;;;;;;0.38;0.38;;;;;;;3.75;85.43;101975.38;5183708;28;20041;-79
2023/01/27 10:11:39;;;;;;;0.40;0.40;;;;;;;3.74;85.44;101968.44;5198616;28;20159;-77
2023/01/27 10:14:34;;;;;;;0.70;0.70;;;;;;;3.78;85.38;101965.03;5194866;28;20045;-78
2023/01/27 10:17:15;;;;;;;0.55;0.55;;;;;;;3.83;84.51;101967.75;5178136;28;20065;-79
2023/01/27 10:20:12;;;;;;;0.40;0.40;;;;;;;3.77;85.12;101965.03;5198205;28;20030;-78
2023/01/27 10:22:51;;;;;;;0.47;0.47;;;;;;;3.82;84.57;101972.91;5179835;28;20110;-78
2023/01/27 10:25:34;;;;;;;2.50;1.58;;;;;;;3.89;84.42;101965.25;5208908;28;20087;-77
2023/01/27 10:28:28;;;;;;;0.82;0.82;;;;;;;3.92;84.50;101967.06;5217026;28;20025;-78
2023/01/27 10:31:00;;;;;;;;;;;;;;;3.88;84.73;101973.03;5197498;28;20046;-79
2023/01/27 10:34:13;;;;;;;0.50;0.50;;;;;;;3.78;85.11;101972.84;5201225;28;19923;-79
2023/01/27 10:36:55;;;;;;;0.60;0.60;;;;;;;3.83;84.87;101969.47;5192180;28;20073;-79
2023/01/27 10:40:04;;;;;;;0.45;0.45;;;;;;;3.91;84.42;101970.50;5187751;28;20060;-78
2023/01/27 10:42:37;;;;;;;0.93;0.93;;;;;;;3.97;84.76;101973.22;5201909;28;20068;-77
2023/01/27 10:45:17;;;;;;;0.60;0.60;;;;;;;4.01;84.31;101969.81;5184788;28;20038;-78
2023/01/27 10:47:54;;;;;;;0.75;0.75;;;;;;;3.99;84.72;101968.94;5178084;28;20091;-78
2023/01/27 10:50:33;;;;;;;0.50;0.50;;;;;;;3.96;84.54;101966.28;5197555;28;20548;-78
2023/01/27 10:53:18;;;;;;;0.70;0.70;;;;;;;4.00;84.75;101970.69;5182144;28;20156;-78
2023/01/27 10:55:58;;;;;;;0.38;0.38;;;;;;;4.14;84.36;101964.88;5192654;28;20038;-78
2023/01/27 10:58:40;;;;;;;0.40;0.40;;;;;;;4.09;84.45;101960.47;5191592;28;20058;-79
2023/01/27 11:01:13;;;;;;;0.95;0.95;;;;;;;4.09;83.90;101968.25;5193642;28;20356;-79
2023/01/27 11:03:52;;;;;;;0.40;0.40;;;;;;;4.15;83.67;101967.50;5180348;28;20558;-79
2023/01/27 11:06:28;;;;;;;0.88;0.88;;;;;;;4.07;83.49;101956.09;5194989;28;20038;-78
2023/01/27 11:09:30;;;;;;;1.08;0.85;;;;;;;4.11;83.84;101968.31;5193847;28;20038;-79
2023/01/27 11:12:07;;;;;;;0.32;0.32;;;;;;;4.19;83.51;101971.03;5195481;28;20120;-79
2023/01/27 11:14:48;;;;;;;1.02;1.02;;;;;;;4.10;84.14;101970.00;5179752;28;20409;-79
2023/01/27 11:17:33;;;;;;;0.95;0.95;;;;;;;4.26;83.85;101959.91;5196624;28;20045;-78
2023/01/27 11:20:27;;;;;;;0.30;0.30;;;;;;;4.14;84.70;101957.09;5176082;28;20045;-79
2023/01/27 11:23:24;;;;;;;0.80;0.80;;;;;;;4.14;83.28;101952.75;5179971;28;20120;-79
2023/01/27 11:26:26;;;;;;;0.52;0.52;;;;;;;4.19;83.59;101958.06;5200620;28;20324;-78
2023/01/27 11:29:21;;;;;;;0.70;0.70;;;;;;;4.16;83.70;101953.69;5176972;28;20075;-79
2023/01/27 11:32:00;;;;;;;0.40;0.40;;;;;;;4.17;84.15;101960.63;5192477;28;20038;-79
2023/01/27 11:34:51;;;;;;;0.30;0.30;;;;;;;4.24;83.27;101961.63;5177837;28;20447;-79
2023/01/27 11:37:29;;;;;;;0.82;0.82;;;;;;;4.24;83.01;101956.44;5175839;28;20036;-80
2023/01/27 11:40:01;;;;;;;0.75;0.75;;;;;;;4.23;83.12;101944.28;5181620;28;20080;-80
2023/01/27 11:42:34;;;;;;;1.05;1.05;;;;;;;4.23;83.40;101946.88;5179942;28;20036;-80
2023/01/27 11:45:05;;;;;;;0.70;0.70;;;;;;;4.29;82.97;101952.19;5193608;28;20041;-79
2023/01/27 11:47:39;;;;;;;0.75;0.75;;;;;;;4.22;82.82;101958.13;5184839;28;20049;-78
2023/01/27 11:50:19;;;;;;;0.82;0.82;;;;;;;4.19;82.66;101952.84;5173917;28;20509;-80
2023/01/27 11:52:59;;;;;;;0.43;0.43;;;;;;;4.28;82.96;101953.03;5190512;28;20029;-79
2023/01/27 11:55:38;;;;;;;2.40;2.20;;;;;;;4.28;82.28;101941.78;5165997;28;20200;-79
2023/01/27 11:58:24;;;;;;;0.60;0.60;;;;;;;4.36;82.79;101946.25;5174478;28;20422;-79
2023/01/27 12:01:08;;;;;;;0.40;0.40;;;;;;;4.35;82.60;101951.44;5170109;28;20042;-79
2023/01/27 12:03:41;;;;;;;0.40;0.40;;;;;;;4.35;82.18;101948.84;5194354;28;20117;-79
2023/01/27 12:06:23;;;;;;;0.70;0.70;;;;;;;4.34;82.40;101942.75;5171974;28;20034;-79
2023/01/27 12:08:53;;;;;;;0.82;0.82;;;;;;;4.23;82.34;101946.88;5177005;28;20096;-79
2023/01/27 12:11:27;;;;;;;0.70;0.70;;;;;;;4.24;82.26;101941.72;5196456;28;20111;-79
2023/01/27 12:14:03;;;;;;;0.60;0.60;;;;;;;4.34;82.84;101934.09;5179225;28;20042;-79
2023/01/27 12:16:44;;;;;;;1.40;1.40;;;;;;;4.32;82.39;101934.06;5193539;28;20127;-79
2023/01/27 12:19:30;;;;;;;0.52;0.52;;;;;;;4.32;82.98;101928.88;5204931;28;20054;-78
2023/01/27 12:22:08;;;;;;;0.40;0.40;;;;;;;4.38;82.97;101922.91;5177531;28;20029;-78
2023/01/27 12:24:44;;;;;;;0.85;0.85;;;;;;;4.34;82.79;101914.16;5197530;28;20037;-78
2023/01/27 12:27:22;;;;;;;0.75;0.75;;;;;;;4.41;81.42;101929.03;5191112;28;20076;-79
2023/01/27 12:30:06;;;;;;;0.93;0.93;;;;;;;4.38;81.51;101918.59;5192103;28;20662;-79
2023/01/27 12:32:41;;;;;;;0.50;0.50;;;;;;;4.34;81.15;101916.75;5196930;28;20035;-78
2023/01/27 12:35:21;;;;;;;0.30;0.30;;;;;;;4.36;81.44;101915.06;5185540;28;20033;-78
2023/01/27 12:38:00;;;;;;;0.30;0.30;;;;;;;4.46;81.46;101918.72;5188469;28;20038;-78
2023/01/27 12:40:33;;;;;;;3.20;2.03;;;;;;;4.52;81.59;101915.34;5195392;28;20425;-78